createdAt,value
2022-07-25T00:01:13.413Z,19.48
2022-07-25T00:03:40.969Z,19.47
2022-07-25T00:06:12.784Z,19.40
2022-07-25T00:08:44.270Z,19.42
2022-07-25T00:11:10.972Z,19.50
2022-07-25T00:13:37.678Z,19.49
2022-07-25T00:16:04.466Z,19.46
2022-07-25T00:18:31.249Z,19.50
2022-07-25T00:20:57.717Z,19.58
2022-07-25T00:23:24.130Z,19.60
2022-07-25T00:25:50.623Z,19.49
2022-07-25T00:28:17.473Z,19.45
2022-07-25T00:30:44.081Z,19.32
2022-07-25T00:33:10.964Z,19.32
2022-07-25T00:35:37.469Z,19.21
2022-07-25T00:38:04.393Z,19.14
2022-07-25T00:40:30.983Z,19.06
2022-07-25T00:42:57.391Z,19.02
2022-07-25T00:45:24.135Z,19.04
2022-07-25T00:47:51.516Z,19.07
2022-07-25T00:50:18.146Z,19.11
2022-07-25T00:52:45.670Z,19.13
2022-07-25T00:55:13.457Z,19.15
2022-07-25T00:57:39.875Z,19.14
2022-07-25T01:00:08.964Z,19.17
2022-07-25T01:02:35.743Z,19.25
2022-07-25T01:05:04.102Z,19.28
2022-07-25T01:07:31.298Z,19.24
2022-07-25T01:09:59.710Z,19.29
2022-07-25T01:12:26.333Z,19.32
2022-07-25T01:14:52.949Z,19.26
2022-07-25T01:17:19.430Z,19.14
2022-07-25T01:19:46.050Z,18.90
2022-07-25T01:22:12.687Z,18.79
2022-07-25T01:24:39.975Z,18.79
2022-07-25T01:27:06.581Z,18.67
2022-07-25T01:29:33.004Z,18.62
2022-07-25T01:32:02.807Z,18.72
2022-07-25T01:34:29.309Z,18.74
2022-07-25T01:36:55.985Z,18.61
2022-07-25T01:39:22.431Z,18.41
2022-07-25T01:41:48.879Z,18.34
2022-07-25T01:44:15.283Z,18.29
2022-07-25T01:46:41.797Z,18.38
2022-07-25T01:49:08.454Z,18.53
2022-07-25T01:51:34.922Z,18.42
2022-07-25T01:54:01.813Z,18.33
2022-07-25T01:56:31.798Z,18.31
2022-07-25T01:58:59.324Z,18.29
2022-07-25T02:01:25.890Z,18.36
2022-07-25T02:03:52.574Z,18.18
2022-07-25T02:06:19.380Z,18.04
2022-07-25T02:08:45.896Z,18.02
2022-07-25T02:11:12.632Z,18.08
2022-07-25T02:13:39.983Z,17.97
2022-07-25T02:16:06.608Z,17.90
2022-07-25T02:18:33.249Z,17.86
2022-07-25T02:20:59.863Z,17.83
2022-07-25T02:23:26.426Z,17.78
2022-07-25T02:25:53.075Z,17.79
2022-07-25T02:28:19.547Z,17.82
2022-07-25T02:30:46.028Z,17.81
2022-07-25T02:33:12.841Z,17.83
2022-07-25T02:35:39.587Z,17.88
2022-07-25T02:38:06.222Z,17.92
2022-07-25T02:40:32.930Z,17.92
2022-07-25T02:42:59.511Z,17.90
2022-07-25T02:45:26.032Z,17.96
2022-07-25T02:47:53.060Z,17.98
2022-07-25T02:50:19.635Z,17.89
2022-07-25T02:52:46.045Z,17.82
2022-07-25T02:55:12.707Z,17.82
2022-07-25T02:57:39.613Z,17.87
2022-07-25T03:00:07.178Z,17.87
2022-07-25T03:02:34.237Z,17.82
2022-07-25T03:05:00.786Z,17.81
2022-07-25T03:07:27.366Z,17.85
2022-07-25T03:09:53.850Z,17.87
2022-07-25T03:12:20.380Z,17.89
2022-07-25T03:14:46.813Z,17.84
2022-07-25T03:17:13.646Z,17.83
2022-07-25T03:19:40.082Z,17.82
2022-07-25T03:22:06.612Z,17.86
2022-07-25T03:24:33.239Z,17.90
2022-07-25T03:26:59.984Z,17.88
2022-07-25T03:29:26.446Z,17.90
2022-07-25T03:31:53.110Z,17.88
2022-07-25T03:34:19.591Z,17.95
2022-07-25T03:36:46.026Z,17.96
2022-07-25T03:39:12.602Z,17.96
2022-07-25T03:41:39.103Z,17.96
2022-07-25T03:44:06.026Z,17.95
2022-07-25T03:46:32.767Z,17.72
2022-07-25T03:48:59.317Z,17.64
2022-07-25T03:51:26.961Z,17.63
2022-07-25T03:53:53.414Z,17.62
2022-07-25T03:56:20.091Z,17.60
2022-07-25T03:58:46.603Z,17.63
2022-07-25T04:01:13.094Z,17.70
2022-07-25T04:03:39.616Z,17.77
2022-07-25T04:06:07.432Z,17.76
2022-07-25T04:08:33.985Z,17.74
2022-07-25T04:11:00.580Z,17.64
2022-07-25T04:13:27.280Z,17.43
2022-07-25T04:15:53.785Z,17.42
2022-07-25T04:18:22.308Z,17.42
2022-07-25T04:20:55.463Z,17.47
2022-07-25T04:23:22.117Z,17.55
2022-07-25T04:25:48.682Z,17.62
2022-07-25T04:28:15.060Z,17.88
2022-07-25T04:30:41.449Z,17.91
2022-07-25T04:33:07.811Z,17.95
2022-07-25T04:35:35.083Z,17.80
2022-07-25T04:38:01.428Z,17.81
2022-07-25T04:40:27.921Z,17.72
2022-07-25T04:42:54.471Z,17.85
2022-07-25T04:45:21.026Z,17.86
2022-07-25T04:47:47.577Z,17.91
2022-07-25T04:50:14.274Z,17.98
2022-07-25T04:52:40.986Z,18.02
2022-07-25T04:55:07.990Z,18.15
2022-07-25T04:57:34.745Z,18.40
2022-07-25T05:00:01.133Z,18.99
2022-07-25T05:02:27.665Z,20.12
2022-07-25T05:04:54.361Z,21.64
2022-07-25T05:07:20.751Z,22.39
2022-07-25T05:09:47.098Z,23.66
2022-07-25T05:12:13.625Z,23.98
2022-07-25T05:14:40.084Z,25.14
2022-07-25T05:17:06.809Z,24.16
2022-07-25T05:19:33.259Z,24.48
2022-07-25T05:21:59.585Z,24.07
2022-07-25T05:24:26.668Z,23.85
2022-07-25T05:26:53.057Z,23.36
2022-07-25T05:29:19.552Z,23.58
2022-07-25T05:31:46.145Z,23.26
2022-07-25T05:34:12.590Z,24.42
2022-07-25T05:36:40.524Z,24.88
2022-07-25T05:39:09.505Z,23.27
2022-07-25T05:41:35.963Z,22.55
2022-07-25T05:44:02.891Z,21.89
2022-07-25T05:46:29.897Z,21.62
2022-07-25T05:48:56.504Z,21.70
2022-07-25T05:51:27.505Z,21.74
2022-07-25T05:53:55.793Z,21.05
2022-07-25T05:56:22.613Z,20.96
2022-07-25T05:58:50.422Z,21.03
2022-07-25T06:01:18.260Z,21.31
2022-07-25T06:03:44.733Z,21.39
2022-07-25T06:06:11.175Z,21.52
2022-07-25T06:08:39.033Z,21.64
2022-07-25T06:11:06.787Z,21.69
2022-07-25T06:13:35.186Z,21.74
2022-07-25T06:16:02.091Z,22.23
2022-07-25T06:18:29.070Z,22.56
2022-07-25T06:20:55.825Z,22.20
2022-07-25T06:23:22.335Z,22.16
2022-07-25T06:25:54.084Z,22.44
2022-07-25T06:28:20.461Z,22.40
2022-07-25T06:30:48.138Z,22.60
2022-07-25T06:33:14.691Z,22.70
2022-07-25T06:35:41.304Z,22.62
2022-07-25T06:38:07.712Z,22.97
2022-07-25T06:40:34.784Z,23.18
2022-07-25T06:43:01.379Z,23.22
2022-07-25T06:45:27.966Z,23.29
2022-07-25T06:47:54.462Z,23.24
2022-07-25T06:50:21.354Z,23.37
2022-07-25T06:52:48.795Z,23.35
2022-07-25T06:55:15.590Z,23.49
2022-07-25T06:58:02.132Z,23.71
2022-07-25T07:00:28.905Z,23.89
2022-07-25T07:02:58.312Z,23.77
2022-07-25T07:05:26.493Z,23.81
2022-07-25T07:07:53.091Z,24.13
2022-07-25T07:10:19.958Z,24.40
2022-07-25T07:12:46.543Z,24.62
2022-07-25T07:15:13.784Z,24.52
2022-07-25T07:17:40.690Z,24.48
2022-07-25T07:20:08.215Z,25.02
2022-07-25T07:22:48.609Z,25.07
2022-07-25T07:25:16.619Z,25.08
2022-07-25T07:27:47.455Z,25.32
2022-07-25T07:30:14.474Z,25.35
2022-07-25T07:32:41.997Z,25.68
2022-07-25T07:35:09.423Z,26.01
2022-07-25T07:37:41.428Z,25.88
2022-07-25T07:40:17.477Z,25.75
2022-07-25T07:42:46.989Z,26.13
2022-07-25T07:45:15.710Z,26.42
2022-07-25T07:47:42.618Z,26.70
2022-07-25T07:50:10.327Z,26.75
2022-07-25T07:52:37.345Z,27.09
2022-07-25T07:55:04.447Z,27.38
2022-07-25T07:57:30.964Z,27.32
2022-07-25T07:59:57.745Z,27.35
2022-07-25T08:02:24.214Z,27.56
2022-07-25T08:04:52.302Z,27.49
2022-07-25T08:07:21.094Z,28.02
2022-07-25T08:09:48.117Z,28.28
2022-07-25T08:12:14.903Z,28.16
2022-07-25T08:14:43.050Z,28.56
2022-07-25T08:17:09.819Z,28.73
2022-07-25T08:19:39.640Z,28.46
2022-07-25T08:22:06.276Z,28.64
2022-07-25T08:24:32.876Z,28.48
2022-07-25T08:26:59.428Z,28.29
2022-07-25T08:29:28.234Z,28.55
2022-07-25T08:31:55.080Z,28.75
2022-07-25T08:34:22.819Z,29.14
2022-07-25T08:36:50.951Z,29.23
2022-07-25T08:39:17.539Z,29.63
2022-07-25T08:41:45.621Z,29.77
2022-07-25T08:44:15.337Z,29.49
2022-07-25T08:46:42.968Z,29.63
2022-07-25T08:49:10.215Z,29.79
2022-07-25T08:51:37.376Z,29.82
2022-07-25T08:54:06.140Z,30.17
2022-07-25T08:56:33.985Z,30.40
2022-07-25T08:59:00.513Z,30.50
2022-07-25T09:01:31.513Z,30.53
2022-07-25T09:04:01.825Z,30.70
2022-07-25T09:06:28.250Z,30.97
2022-07-25T09:08:57.448Z,30.97
2022-07-25T09:11:27.789Z,31.06
2022-07-25T09:13:59.483Z,31.37
2022-07-25T09:16:32.899Z,31.49
2022-07-25T09:19:13.504Z,31.24
2022-07-25T09:21:41.294Z,31.61
2022-07-25T09:24:19.027Z,31.60
2022-07-25T09:26:51.618Z,31.67
2022-07-25T09:29:29.430Z,32.11
2022-07-25T09:31:57.375Z,32.12
2022-07-25T09:34:39.971Z,32.16
2022-07-25T09:37:09.270Z,32.51
2022-07-25T09:39:43.470Z,32.56
2022-07-25T09:42:20.853Z,32.81
2022-07-25T09:45:29.679Z,32.38
2022-07-25T09:48:04.028Z,32.94
2022-07-25T09:50:32.871Z,33.24
2022-07-25T09:53:02.278Z,33.20
2022-07-25T09:55:30.359Z,33.18
2022-07-25T09:57:57.677Z,33.19
2022-07-25T10:00:29.080Z,33.35
2022-07-25T10:02:55.741Z,33.66
2022-07-25T10:05:43.622Z,33.81
2022-07-25T10:08:11.733Z,33.71
2022-07-25T10:10:40.264Z,33.71
2022-07-25T10:13:10.695Z,33.70
2022-07-25T10:15:49.122Z,33.45
2022-07-25T10:18:17.650Z,33.48
2022-07-25T10:20:45.151Z,33.62
2022-07-25T10:23:28.074Z,33.74
2022-07-25T10:26:22.381Z,34.07
2022-07-25T10:28:51.125Z,34.20
2022-07-25T10:31:36.736Z,34.09
2022-07-25T10:34:08.802Z,33.89
2022-07-25T10:36:48.255Z,34.29
2022-07-25T10:39:17.185Z,34.09
2022-07-25T10:41:55.417Z,34.23
2022-07-25T10:44:22.336Z,34.23
2022-07-25T10:46:48.856Z,34.38
2022-07-25T10:49:30.987Z,34.68
2022-07-25T10:52:01.218Z,34.63
2022-07-25T10:54:36.493Z,34.73
2022-07-25T10:57:05.110Z,35.15
2022-07-25T10:59:38.306Z,34.92
2022-07-25T11:02:07.747Z,34.91
2022-07-25T11:04:34.998Z,34.78
2022-07-25T11:07:13.438Z,34.00
2022-07-25T11:09:42.153Z,34.58
2022-07-25T11:12:09.164Z,35.09
2022-07-25T11:14:40.771Z,34.81
2022-07-25T11:17:18.847Z,35.26
2022-07-25T11:20:09.818Z,35.34
2022-07-25T11:22:36.857Z,35.36
2022-07-25T11:25:12.539Z,34.99
2022-07-25T11:27:39.021Z,34.91
2022-07-25T11:30:17.373Z,34.66
2022-07-25T11:32:46.851Z,34.75
2022-07-25T11:35:14.567Z,34.59
2022-07-25T11:37:44.401Z,34.78
2022-07-25T11:40:11.065Z,34.94
2022-07-25T11:42:58.092Z,34.68
2022-07-25T11:45:27.739Z,34.79
2022-07-25T11:48:10.835Z,34.70
2022-07-25T11:50:40.875Z,34.84
2022-07-25T11:53:09.632Z,34.49
2022-07-25T11:55:39.628Z,34.73
2022-07-25T11:58:06.750Z,34.28
2022-07-25T12:00:41.679Z,34.64
2022-07-25T12:03:20.630Z,34.89
2022-07-25T12:05:48.927Z,35.54
2022-07-25T12:08:24.393Z,35.29
2022-07-25T12:10:51.346Z,35.96
2022-07-25T12:13:26.402Z,36.09
2022-07-25T12:15:52.959Z,36.14
2022-07-25T12:18:21.355Z,36.40
2022-07-25T12:20:47.827Z,36.82
2022-07-25T12:23:14.435Z,36.91
2022-07-25T12:25:43.656Z,36.75
2022-07-25T12:28:10.677Z,36.49
2022-07-25T12:30:38.428Z,36.77
2022-07-25T12:33:06.004Z,36.57
2022-07-25T12:35:33.038Z,36.48
2022-07-25T12:37:59.787Z,36.36
2022-07-25T12:40:26.437Z,36.85
2022-07-25T12:42:52.965Z,36.98
2022-07-25T12:45:19.448Z,37.38
2022-07-25T12:47:47.837Z,37.53
2022-07-25T12:50:16.219Z,37.81
2022-07-25T12:52:43.578Z,38.04
2022-07-25T12:55:12.697Z,37.75
2022-07-25T12:57:39.910Z,37.06
2022-07-25T13:00:10.233Z,36.76
2022-07-25T13:02:38.462Z,37.01
2022-07-25T13:05:06.002Z,36.99
2022-07-25T13:07:33.741Z,36.06
2022-07-25T13:10:01.062Z,36.45
2022-07-25T13:12:27.792Z,36.13
2022-07-25T13:14:54.571Z,35.35
2022-07-25T13:17:26.550Z,34.79
2022-07-25T13:19:54.315Z,35.04
2022-07-25T13:22:20.682Z,34.91
2022-07-25T13:24:47.310Z,34.94
2022-07-25T13:27:13.960Z,34.91
2022-07-25T13:29:40.555Z,34.70
2022-07-25T13:32:07.409Z,34.48
2022-07-25T13:34:33.986Z,34.45
2022-07-25T13:37:00.631Z,34.67
2022-07-25T13:39:27.251Z,34.88
2022-07-25T13:41:53.816Z,34.95
2022-07-25T13:44:20.323Z,34.97
2022-07-25T13:46:47.061Z,34.98
2022-07-25T13:49:13.631Z,35.34
2022-07-25T13:51:40.713Z,34.87
2022-07-25T13:54:07.298Z,34.74
2022-07-25T13:56:34.186Z,34.64
2022-07-25T13:59:02.962Z,34.44
2022-07-25T14:01:30.108Z,34.26
2022-07-25T14:03:57.001Z,34.39
2022-07-25T14:06:23.658Z,34.33
2022-07-25T14:08:50.440Z,34.37
2022-07-25T14:11:17.146Z,34.42
2022-07-25T14:13:43.940Z,34.37
2022-07-25T14:16:10.776Z,34.56
2022-07-25T14:18:37.182Z,34.49
2022-07-25T14:21:04.145Z,34.35
2022-07-25T14:23:30.882Z,34.19
2022-07-25T14:25:58.994Z,34.12
2022-07-25T14:28:26.104Z,33.94
2022-07-25T14:30:52.612Z,33.82
2022-07-25T14:33:19.345Z,33.74
2022-07-25T14:35:45.841Z,33.51
2022-07-25T14:38:12.640Z,33.41
2022-07-25T14:40:41.387Z,33.15
2022-07-25T14:43:07.849Z,32.27
2022-07-25T14:45:34.846Z,31.97
2022-07-25T14:48:01.399Z,31.73
2022-07-25T14:50:27.999Z,31.91
2022-07-25T14:52:54.611Z,32.24
2022-07-25T14:55:21.296Z,32.67
2022-07-25T14:57:48.038Z,32.94
2022-07-25T15:00:15.350Z,33.08
2022-07-25T15:02:42.494Z,32.88
2022-07-25T15:05:09.764Z,32.49
2022-07-25T15:07:37.804Z,32.28
2022-07-25T15:10:05.060Z,32.27
2022-07-25T15:12:31.882Z,32.31
2022-07-25T15:14:58.276Z,32.25
2022-07-25T15:17:24.926Z,32.51
2022-07-25T15:19:51.372Z,32.55
2022-07-25T15:22:18.133Z,32.93
2022-07-25T15:25:17.944Z,32.93
2022-07-25T15:27:31.844Z,33.23
2022-07-25T15:29:58.502Z,33.35
2022-07-25T15:32:25.172Z,33.34
2022-07-25T15:34:51.879Z,33.47
2022-07-25T15:37:18.472Z,33.78
2022-07-25T15:39:45.189Z,33.41
2022-07-25T15:42:13.007Z,33.52
2022-07-25T15:44:39.471Z,33.58
2022-07-25T15:47:07.044Z,33.77
2022-07-25T15:49:33.748Z,33.77
2022-07-25T15:52:00.653Z,33.69
2022-07-25T15:54:29.551Z,33.84
2022-07-25T15:56:56.356Z,33.54
2022-07-25T15:59:22.989Z,33.34
2022-07-25T16:01:49.667Z,32.59
2022-07-25T16:04:16.340Z,32.03
2022-07-25T16:06:43.048Z,32.19
2022-07-25T16:09:10.108Z,32.27
2022-07-25T16:11:37.047Z,31.92
2022-07-25T16:14:03.482Z,32.01
2022-07-25T16:16:30.066Z,32.19
2022-07-25T16:18:57.573Z,31.99
2022-07-25T16:21:24.221Z,31.80
2022-07-25T16:23:50.636Z,31.82
2022-07-25T16:26:17.131Z,31.58
2022-07-25T16:28:43.924Z,31.27
2022-07-25T16:31:10.475Z,31.25
2022-07-25T16:33:37.115Z,30.98
2022-07-25T16:36:03.823Z,30.89
2022-07-25T16:38:30.563Z,30.88
2022-07-25T16:40:57.107Z,30.77
2022-07-25T16:43:23.768Z,30.57
2022-07-25T16:45:50.565Z,30.57
2022-07-25T16:48:17.225Z,30.70
2022-07-25T16:50:43.610Z,30.67
2022-07-25T16:53:10.007Z,30.55
2022-07-25T16:55:36.525Z,30.56
2022-07-25T16:58:03.099Z,30.49
2022-07-25T17:00:31.278Z,30.42
2022-07-25T17:02:57.983Z,30.40
2022-07-25T17:05:24.515Z,30.33
2022-07-25T17:07:57.011Z,30.22
2022-07-25T17:10:25.918Z,30.18
2022-07-25T17:12:52.401Z,30.21
2022-07-25T17:15:19.312Z,30.23
2022-07-25T17:17:45.875Z,30.24
2022-07-25T17:20:12.508Z,30.30
2022-07-25T17:22:39.072Z,30.33
2022-07-25T17:25:06.225Z,30.44
2022-07-25T17:27:32.748Z,30.57
2022-07-25T17:29:59.189Z,30.75
2022-07-25T17:32:29.661Z,30.94
2022-07-25T17:34:57.174Z,31.12
2022-07-25T17:37:23.696Z,31.37
2022-07-25T17:39:50.316Z,31.35
2022-07-25T17:42:16.703Z,31.37
2022-07-25T17:44:43.051Z,31.20
2022-07-25T17:47:09.545Z,31.21
2022-07-25T17:49:35.954Z,31.35
2022-07-25T17:52:02.437Z,31.52
2022-07-25T17:54:28.922Z,31.57
2022-07-25T17:56:55.591Z,31.43
2022-07-25T17:59:22.013Z,31.49
2022-07-25T18:01:48.491Z,31.50
2022-07-25T18:04:15.051Z,31.50
2022-07-25T18:06:41.581Z,31.67
2022-07-25T18:09:08.583Z,31.46
2022-07-25T18:11:35.058Z,31.52
2022-07-25T18:14:01.476Z,31.26
2022-07-25T18:16:28.198Z,31.29
2022-07-25T18:18:54.964Z,31.20
2022-07-25T18:21:21.527Z,30.75
2022-07-25T18:23:48.028Z,30.40
2022-07-25T18:26:15.229Z,30.14
2022-07-25T18:28:41.892Z,29.95
2022-07-25T18:31:08.452Z,29.84
2022-07-25T18:33:35.194Z,29.65
2022-07-25T18:36:05.586Z,29.48
2022-07-25T18:38:34.491Z,29.33
2022-07-25T18:41:26.284Z,29.20
2022-07-25T18:43:48.737Z,29.05
2022-07-25T18:46:15.431Z,28.91
2022-07-25T18:48:43.590Z,28.81
2022-07-25T18:51:10.430Z,28.68
2022-07-25T18:53:37.685Z,28.58
2022-07-25T18:56:05.132Z,28.49
2022-07-25T18:58:32.166Z,28.48
2022-07-25T19:00:58.704Z,28.40
2022-07-25T19:03:25.229Z,28.31
2022-07-25T19:05:51.944Z,28.17
2022-07-25T19:08:18.701Z,28.11
2022-07-25T19:10:45.192Z,28.04
2022-07-25T19:13:26.756Z,27.93
2022-07-25T19:16:02.151Z,27.78
2022-07-25T19:18:29.585Z,27.66
2022-07-25T19:20:56.191Z,27.56
2022-07-25T19:23:22.643Z,27.45
2022-07-25T19:25:49.190Z,27.37
2022-07-25T19:28:15.871Z,27.32
2022-07-25T19:30:42.485Z,27.28
2022-07-25T19:33:11.230Z,27.24
2022-07-25T19:35:37.886Z,27.17
2022-07-25T19:38:05.234Z,27.15
2022-07-25T19:40:32.870Z,27.10
2022-07-25T19:43:01.374Z,27.06
2022-07-25T19:45:28.979Z,27.02
2022-07-25T19:47:55.590Z,27.00
2022-07-25T19:50:22.093Z,26.95
2022-07-25T19:52:48.531Z,26.89
2022-07-25T19:55:15.141Z,26.85
2022-07-25T19:57:41.614Z,26.81
2022-07-25T20:00:08.831Z,26.76
2022-07-25T20:02:35.525Z,26.65
2022-07-25T20:05:02.786Z,26.62
2022-07-25T20:07:29.351Z,26.56
2022-07-25T20:09:58.305Z,26.45
2022-07-25T20:12:24.880Z,26.39
2022-07-25T20:14:51.879Z,26.32
2022-07-25T20:17:18.710Z,26.27
2022-07-25T20:19:45.282Z,26.24
2022-07-25T20:22:12.135Z,26.21
2022-07-25T20:24:38.652Z,26.11
2022-07-25T20:27:05.406Z,26.07
2022-07-25T20:29:31.916Z,25.98
2022-07-25T20:31:59.354Z,25.94
2022-07-25T20:34:25.872Z,25.87
2022-07-25T20:36:52.418Z,25.82
2022-07-25T20:39:18.925Z,25.78
2022-07-25T20:41:45.644Z,25.68
2022-07-25T20:44:12.306Z,25.62
2022-07-25T20:46:39.514Z,25.55
2022-07-25T20:49:07.272Z,25.51
2022-07-25T20:51:36.540Z,25.42
2022-07-25T20:54:04.350Z,25.39
2022-07-25T20:56:30.777Z,25.34
2022-07-25T20:58:57.487Z,25.31
2022-07-25T21:01:24.605Z,25.30
2022-07-25T21:03:51.340Z,25.23
2022-07-25T21:06:18.194Z,25.22
2022-07-25T21:08:44.743Z,25.18
2022-07-25T21:11:11.522Z,25.13
2022-07-25T21:13:37.944Z,25.13
2022-07-25T21:16:04.657Z,25.08
2022-07-25T21:18:31.259Z,25.06
2022-07-25T21:20:57.762Z,25.01
2022-07-25T21:23:24.386Z,24.98
2022-07-25T21:25:50.885Z,24.89
2022-07-25T21:28:17.789Z,24.86
2022-07-25T21:30:44.437Z,24.80
2022-07-25T21:33:14.371Z,24.76
2022-07-25T21:35:52.875Z,24.69
2022-07-25T21:38:26.681Z,24.65
2022-07-25T21:40:56.946Z,24.64
2022-07-25T21:43:24.259Z,24.59
2022-07-25T21:45:51.215Z,24.53
2022-07-25T21:48:20.885Z,24.50
2022-07-25T21:50:48.762Z,24.46
2022-07-25T21:53:16.838Z,24.45
2022-07-25T21:55:43.318Z,24.39
2022-07-25T21:58:09.933Z,24.34
2022-07-25T22:00:41.395Z,24.29
2022-07-25T22:03:11.952Z,24.25
2022-07-25T22:05:38.510Z,24.18
2022-07-25T22:08:05.259Z,24.11
2022-07-25T22:10:31.881Z,24.00
2022-07-25T22:12:58.520Z,23.88
2022-07-25T22:15:25.052Z,23.75
2022-07-25T22:17:51.808Z,23.65
2022-07-25T22:20:19.548Z,23.66
2022-07-25T22:22:47.522Z,23.63
2022-07-25T22:25:14.612Z,23.57
2022-07-25T22:27:41.222Z,23.54
2022-07-25T22:30:08.465Z,23.40
2022-07-25T22:32:34.863Z,23.31
2022-07-25T22:35:01.574Z,23.26
2022-07-25T22:37:32.659Z,23.13
2022-07-25T22:40:01.346Z,23.11
2022-07-25T22:42:28.224Z,23.12
2022-07-25T22:44:54.742Z,23.18
2022-07-25T22:47:21.337Z,23.25
2022-07-25T22:49:47.943Z,23.26
2022-07-25T22:52:14.675Z,23.30
2022-07-25T22:54:41.467Z,23.34
2022-07-25T22:57:08.166Z,23.36
2022-07-25T22:59:34.582Z,23.34
2022-07-25T23:02:01.205Z,23.32
2022-07-25T23:04:27.886Z,23.33
2022-07-25T23:06:54.414Z,23.32
2022-07-25T23:09:20.932Z,23.26
2022-07-25T23:11:47.727Z,23.28
2022-07-25T23:14:14.255Z,23.19
2022-07-25T23:16:41.326Z,23.16
2022-07-25T23:19:08.371Z,23.23
2022-07-25T23:21:35.148Z,23.22
2022-07-25T23:24:01.889Z,23.08
2022-07-25T23:26:28.517Z,23.08
2022-07-25T23:28:55.298Z,23.11
2022-07-25T23:31:21.954Z,23.14
2022-07-25T23:33:48.514Z,23.09
2022-07-25T23:36:15.130Z,23.05
2022-07-25T23:38:41.781Z,23.03
2022-07-25T23:41:08.355Z,23.02
2022-07-25T23:43:56.497Z,23.08
2022-07-25T23:46:27.566Z,23.15
2022-07-25T23:48:54.942Z,23.18
2022-07-25T23:51:21.552Z,23.11
2022-07-25T23:53:48.306Z,23.05
2022-07-25T23:56:18.768Z,23.01
2022-07-25T23:58:47.671Z,22.96
